Time;durP1;ratioP1;P1;durP2;ratioP2;P2;SDS_P1;SDS_P2;PMS_P1;PMS_P2;Temp;Humidity;BMP_temperature;BMP_pressure;BME280_temperature;BME280_humidity;BME280_pressure;Samples;Min_cycle;Max_cycle;Signal;HPM_P1;HPM_P2
2023/01/15 00:00:49;;;;;;;179.82;80.22;;;2.30;99.90;;;;;;4828001;29;20518;-87
2023/01/15 00:03:18;;;;;;;185.75;81.43;;;2.30;99.90;;;;;;4828036;29;20071;-87
2023/01/15 00:05:44;;;;;;;196.98;86.05;;;2.40;99.90;;;;;;4827387;29;20099;-86
2023/01/15 00:08:09;;;;;;;196.30;82.68;;;2.30;99.90;;;;;;4843224;29;20034;-87
2023/01/15 00:10:35;;;;;;;210.65;96.40;;;2.30;99.90;;;;;;4842831;29;20132;-86
2023/01/15 00:13:01;;;;;;;310.17;121.25;;;2.30;99.90;;;;;;4843668;29;20038;-85
2023/01/15 00:15:27;;;;;;;303.52;120.88;;;2.30;99.90;;;;;;4844740;29;20064;-86
2023/01/15 00:17:56;;;;;;;318.75;121.18;;;2.30;99.90;;;;;;4845158;29;20029;-86
2023/01/15 00:20:21;;;;;;;352.63;134.30;;;2.30;99.90;;;;;;4861115;29;20036;-86
2023/01/15 00:22:49;;;;;;;330.08;131.18;;;2.30;99.90;;;;;;4845284;29;20025;-86
2023/01/15 00:28:05;;;;;;;226.80;94.28;;;2.20;99.90;;;;;;4976044;28;20056;-85
2023/01/15 00:30:33;;;;;;;180.45;78.13;;;2.20;99.90;;;;;;4959584;28;20019;-85
2023/01/15 00:32:58;;;;;;;158.30;70.78;;;2.20;99.90;;;;;;4960028;28;20450;-86
2023/01/15 00:35:24;;;;;;;169.82;69.38;;;2.20;99.90;;;;;;4959925;28;20110;-86
2023/01/15 00:37:50;;;;;;;188.15;80.53;;;2.20;99.90;;;;;;4959670;28;20018;-86
2023/01/15 00:40:18;;;;;;;163.40;72.22;;;2.20;99.90;;;;;;4958566;28;20022;-86
2023/01/15 00:42:44;;;;;;;147.18;66.68;;;2.30;99.90;;;;;;4968096;28;20011;-85
2023/01/15 00:45:11;;;;;;;163.82;72.65;;;2.20;99.90;;;;;;4940673;29;20023;-85
2023/01/15 00:47:41;;;;;;;150.10;66.57;;;2.30;99.90;;;;;;4969184;28;20034;-85
2023/01/15 00:50:13;;;;;;;146.57;62.33;;;2.30;99.90;;;;;;4976588;28;20153;-85
2023/01/15 00:52:39;;;;;;;134.55;61.95;;;2.30;99.90;;;;;;4959068;28;20033;-85
2023/01/15 00:55:06;;;;;;;139.07;63.50;;;2.30;99.90;;;;;;4958842;28;20047;-85
2023/01/15 00:57:33;;;;;;;164.18;66.95;;;2.30;99.90;;;;;;4958834;28;20035;-85
2023/01/15 00:59:58;;;;;;;131.95;56.92;;;2.30;99.90;;;;;;4957831;28;20454;-86
2023/01/15 01:02:24;;;;;;;137.88;55.22;;;2.30;99.90;;;;;;4959171;28;20041;-85
2023/01/15 01:04:50;;;;;;;141.57;61.42;;;2.30;99.90;;;;;;4958778;28;20466;-85
2023/01/15 01:07:17;;;;;;;174.27;71.05;;;2.30;99.90;;;;;;4958539;28;20102;-86
2023/01/15 01:09:43;;;;;;;155.30;63.20;;;2.30;99.90;;;;;;4948758;28;20387;-86
2023/01/15 01:12:09;;;;;;;152.57;63.17;;;2.30;99.90;;;;;;4939529;29;20027;-85
2023/01/15 01:14:36;;;;;;;126.38;54.55;;;2.30;99.90;;;;;;4939611;29;20497;-85
2023/01/15 01:17:02;;;;;;;120.50;51.63;;;2.30;99.90;;;;;;4939256;29;20086;-85
2023/01/15 01:19:28;;;;;;;135.48;54.00;;;2.30;99.90;;;;;;4939576;29;20067;-85
2023/01/15 01:21:54;;;;;;;162.23;66.25;;;2.30;99.90;;;;;;4939206;29;20055;-85
2023/01/15 01:24:22;;;;;;;202.77;81.05;;;2.20;99.90;;;;;;4939099;29;20039;-86
2023/01/15 01:26:48;;;;;;;196.00;80.82;;;2.30;99.90;;;;;;4939414;29;20450;-85
2023/01/15 01:29:19;;;;;;;209.50;85.68;;;2.20;99.90;;;;;;4938939;29;20027;-86
2023/01/15 01:31:45;;;;;;;147.20;65.00;;;2.20;99.90;;;;;;4939061;29;20055;-86
2023/01/15 01:34:12;;;;;;;150.77;65.43;;;2.20;99.90;;;;;;4938970;29;20031;-86
2023/01/15 01:36:40;;;;;;;147.48;67.40;;;2.10;99.90;;;;;;4938328;29;20081;-85
2023/01/15 01:39:10;;;;;;;155.63;70.85;;;2.10;99.90;;;;;;4956089;29;20038;-85
2023/01/15 01:41:36;;;;;;;166.18;70.72;;;2.10;99.90;;;;;;4939693;29;20024;-85
2023/01/15 01:44:04;;;;;;;172.57;74.78;;;2.00;99.90;;;;;;4939168;29;20047;-87
2023/01/15 01:46:32;;;;;;;194.77;82.00;;;2.00;99.90;;;;;;4939353;29;20023;-85
2023/01/15 01:49:05;;;;;;;180.77;78.60;;;2.00;99.90;;;;;;4938719;29;20054;-85
2023/01/15 01:51:48;;;;;;;193.52;85.60;;;1.90;99.90;;;;;;4938826;29;20034;-85
2023/01/15 01:54:18;;;;;;;192.10;84.40;;;1.90;99.90;;;;;;4951202;29;20468;-85
2023/01/15 01:56:48;;;;;;;189.50;84.00;;;1.90;99.90;;;;;;4938520;29;20027;-85
2023/01/15 01:59:15;;;;;;;195.00;87.68;;;1.90;99.90;;;;;;4937931;29;20038;-85
2023/01/15 02:01:41;;;;;;;198.18;89.03;;;1.90;99.90;;;;;;4938536;29;20114;-86
2023/01/15 02:04:08;;;;;;;202.70;95.88;;;1.80;99.90;;;;;;4955465;29;20158;-85
2023/01/15 02:06:34;;;;;;;225.00;102.15;;;1.80;99.90;;;;;;4938457;29;20455;-85
2023/01/15 02:09:00;;;;;;;211.45;100.90;;;1.80;99.90;;;;;;4940391;28;20039;-85
2023/01/15 02:11:28;;;;;;;206.38;96.40;;;1.80;99.90;;;;;;4938321;29;20038;-84
2023/01/15 02:14:08;;;;;;;228.23;103.45;;;1.80;99.90;;;;;;4955468;29;20042;-86
2023/01/15 02:16:42;;;;;;;230.02;101.88;;;1.70;99.90;;;;;;4949221;29;20082;-85
2023/01/15 02:19:34;;;;;;;254.45;106.43;;;1.80;99.90;;;;;;4949614;29;20023;-85
2023/01/15 02:22:28;;;;;;;211.00;92.68;;;1.70;99.90;;;;;;4949060;29;20454;-84
2023/01/15 02:25:20;;;;;;;206.93;89.57;;;1.70;99.90;;;;;;4933341;29;20035;-84
2023/01/15 02:27:56;;;;;;;202.57;90.43;;;1.70;99.90;;;;;;4935198;29;20027;-84
2023/01/15 02:30:27;;;;;;;213.32;90.40;;;1.70;99.90;;;;;;4938324;29;20050;-84
2023/01/15 02:32:58;;;;;;;208.10;92.83;;;1.70;99.90;;;;;;4937860;29;20023;-84
2023/01/15 02:35:59;;;;;;;218.02;94.88;;;1.70;99.90;;;;;;4955208;29;20138;-84
2023/01/15 02:38:29;;;;;;;208.18;92.70;;;1.60;99.90;;;;;;4877078;29;20029;-84
2023/01/15 02:40:59;;;;;;;210.43;96.63;;;1.60;99.90;;;;;;4861489;29;20025;-84
2023/01/15 02:43:28;;;;;;;208.48;91.22;;;1.60;99.90;;;;;;4861811;29;20400;-83
2023/01/15 02:45:57;;;;;;;207.20;90.97;;;1.60;99.90;;;;;;4876950;29;20421;-84
2023/01/15 02:48:28;;;;;;;207.68;88.85;;;1.50;99.90;;;;;;4861471;29;20045;-83
2023/01/15 02:51:04;;;;;;;215.67;91.93;;;1.50;99.90;;;;;;4877321;29;20037;-84
2023/01/15 02:53:30;;;;;;;215.68;91.65;;;1.50;99.90;;;;;;4861738;29;20496;-84
2023/01/15 02:56:02;;;;;;;194.77;88.00;;;1.50;99.90;;;;;;4861574;29;20064;-83
2023/01/15 02:58:34;;;;;;;202.70;90.15;;;1.50;99.90;;;;;;4862034;29;20162;-83
2023/01/15 03:01:05;;;;;;;190.63;85.97;;;1.50;99.90;;;;;;4877040;29;20512;-84
2023/01/15 03:03:51;;;;;;;201.55;90.80;;;1.50;99.90;;;;;;4861322;29;20036;-84
2023/01/15 03:06:18;;;;;;;198.13;88.40;;;1.50;99.90;;;;;;4877194;29;20075;-85
2023/01/15 03:08:44;;;;;;;206.63;87.90;;;1.50;99.90;;;;;;4876843;29;20487;-84
2023/01/15 03:11:15;;;;;;;209.95;90.25;;;1.50;99.90;;;;;;4913927;29;20048;-84
2023/01/15 03:13:58;;;;;;;154.43;72.18;;;1.40;99.90;;;;;;4911380;28;20056;-83
2023/01/15 03:16:38;;;;;;;218.48;94.75;;;1.40;99.90;;;;;;4968672;28;20026;-83
2023/01/15 03:19:19;;;;;;;215.18;94.60;;;1.30;99.90;;;;;;4968986;28;20019;-84
2023/01/15 03:21:50;;;;;;;243.63;101.68;;;1.30;99.90;;;;;;4968002;28;20474;-83
2023/01/15 03:24:41;;;;;;;345.25;105.45;;;1.30;99.90;;;;;;4975000;28;20447;-84
2023/01/15 03:27:06;;;;;;;384.65;99.78;;;1.20;99.90;;;;;;4962285;28;20494;-81
2023/01/15 03:29:41;;;;;;;434.77;105.10;;;1.20;99.90;;;;;;4977757;28;20023;-82
2023/01/15 03:32:07;;;;;;;463.48;99.18;;;1.10;99.90;;;;;;4976649;28;20082;-81
2023/01/15 03:34:40;;;;;;;558.05;105.00;;;1.00;99.90;;;;;;4976668;28;20030;-83
2023/01/15 03:37:06;;;;;;;628.40;103.20;;;0.90;99.90;;;;;;4977444;28;20109;-82
2023/01/15 03:39:32;;;;;;;717.67;106.00;;;0.90;99.90;;;;;;4977829;28;20038;-82
2023/01/15 03:42:09;;;;;;;562.22;94.32;;;0.90;99.90;;;;;;4977712;28;20038;-83
2023/01/15 03:44:43;;;;;;;669.70;99.93;;;0.90;99.90;;;;;;4976154;28;20031;-83
2023/01/15 03:47:21;;;;;;;462.27;85.78;;;0.90;99.90;;;;;;4976411;28;20105;-82
2023/01/15 03:50:02;;;;;;;640.25;100.57;;;0.90;99.90;;;;;;4977527;28;20030;-82
2023/01/15 03:52:54;;;;;;;735.65;105.32;;;1.00;99.90;;;;;;4977720;28;20487;-83
2023/01/15 03:55:43;;;;;;;521.60;74.90;;;1.00;99.90;;;;;;4970818;28;20089;-82
2023/01/15 03:58:18;;;;;;;666.22;107.85;;;1.00;99.90;;;;;;4972476;28;20041;-81
2023/01/15 04:00:51;;;;;;;820.90;112.43;;;1.00;99.90;;;;;;4971241;28;20027;-82
2023/01/15 04:03:18;;;;;;;808.67;113.70;;;1.00;99.90;;;;;;4971689;28;20070;-82
2023/01/15 04:05:45;;;;;;;816.83;117.60;;;1.00;99.90;;;;;;4977165;28;20339;-83
2023/01/15 04:08:12;;;;;;;731.03;111.53;;;1.00;99.90;;;;;;4976989;28;20022;-82
2023/01/15 04:10:49;;;;;;;410.52;97.00;;;1.00;99.90;;;;;;4975629;28;20042;-82
2023/01/15 04:13:14;;;;;;;690.15;116.07;;;1.00;99.90;;;;;;4977064;28;20031;-82
2023/01/15 04:15:40;;;;;;;728.72;115.65;;;1.00;99.90;;;;;;4977067;28;20030;-83
2023/01/15 04:18:06;;;;;;;625.20;113.07;;;1.00;99.90;;;;;;4976856;28;20153;-84
2023/01/15 04:20:31;;;;;;;392.10;105.57;;;1.00;99.90;;;;;;4975850;28;20034;-81
2023/01/15 04:22:57;;;;;;;306.02;101.32;;;1.00;99.90;;;;;;4976522;28;20051;-82
2023/01/15 04:25:23;;;;;;;365.30;111.90;;;1.00;99.90;;;;;;4976784;28;20034;-82
2023/01/15 04:27:49;;;;;;;310.88;104.28;;;0.90;99.90;;;;;;4975505;28;20027;-81
2023/01/15 04:30:16;;;;;;;285.70;100.97;;;0.90;99.90;;;;;;4977049;28;20029;-82
2023/01/15 04:32:42;;;;;;;234.30;86.43;;;0.90;99.90;;;;;;4976686;28;20109;-82
2023/01/15 04:35:08;;;;;;;265.85;99.05;;;0.90;99.90;;;;;;4975490;28;20076;-85
2023/01/15 04:37:33;;;;;;;258.73;96.38;;;0.80;99.90;;;;;;4976452;28;20450;-81
2023/01/15 04:39:59;;;;;;;255.88;96.40;;;0.90;99.90;;;;;;4975289;28;20117;-83
2023/01/15 04:45:09;;;;;;;274.02;111.55;;;0.90;99.90;;;;;;4976191;28;20536;-81
2023/01/15 04:47:35;;;;;;;280.00;115.68;;;0.80;99.90;;;;;;4974916;28;20378;-82
2023/01/15 04:50:00;;;;;;;262.30;105.22;;;0.90;99.90;;;;;;4975181;28;20484;-80
2023/01/15 04:52:26;;;;;;;253.73;99.97;;;0.90;99.90;;;;;;4976173;28;20038;-82
2023/01/15 04:54:54;;;;;;;231.52;93.72;;;0.90;99.90;;;;;;4976542;28;20469;-81
2023/01/15 04:57:20;;;;;;;217.88;84.47;;;1.00;99.90;;;;;;4975877;28;20121;-80
2023/01/15 04:59:45;;;;;;;211.15;91.35;;;1.00;99.90;;;;;;4975030;28;20134;-81
2023/01/15 05:02:11;;;;;;;203.65;88.95;;;1.00;99.90;;;;;;4974758;28;20440;-81
2023/01/15 05:04:37;;;;;;;196.18;84.55;;;1.00;99.90;;;;;;4975297;28;20034;-81
2023/01/15 05:07:03;;;;;;;195.73;85.15;;;1.00;99.90;;;;;;4976102;28;20366;-80
2023/01/15 05:09:30;;;;;;;200.45;83.15;;;1.00;99.90;;;;;;4966611;28;20075;-81
2023/01/15 05:11:55;;;;;;;187.68;80.57;;;1.00;99.90;;;;;;4956960;29;20455;-81
2023/01/15 05:14:21;;;;;;;183.27;80.05;;;1.00;99.90;;;;;;4956780;29;20029;-81
2023/01/15 05:16:47;;;;;;;173.25;75.85;;;1.00;99.90;;;;;;4956580;29;20066;-81
2023/01/15 05:19:13;;;;;;;171.20;74.82;;;1.00;99.90;;;;;;4939405;29;20058;-84
2023/01/15 05:21:43;;;;;;;176.68;75.13;;;1.00;99.90;;;;;;4939275;29;20375;-81
2023/01/15 05:24:13;;;;;;;176.80;76.80;;;1.00;99.90;;;;;;4956518;29;20058;-81
2023/01/15 05:26:39;;;;;;;170.98;76.90;;;1.00;99.90;;;;;;4939394;29;20031;-81
2023/01/15 05:29:05;;;;;;;177.63;76.55;;;1.00;99.90;;;;;;4956182;29;20023;-81
2023/01/15 05:31:32;;;;;;;177.27;76.30;;;1.00;99.90;;;;;;4939249;29;20367;-81
2023/01/15 05:33:59;;;;;;;178.35;80.15;;;1.00;99.90;;;;;;4939056;29;20046;-81
2023/01/15 05:36:27;;;;;;;178.70;78.88;;;1.00;99.90;;;;;;4956156;29;20027;-81
2023/01/15 05:38:56;;;;;;;205.13;92.05;;;1.00;99.90;;;;;;4956111;29;20166;-81
2023/01/15 05:44:09;;;;;;;180.65;84.30;;;1.00;99.90;;;;;;4955844;29;20066;-82
2023/01/15 05:46:37;;;;;;;200.75;87.85;;;1.00;99.90;;;;;;4938633;29;20031;-81
2023/01/15 05:49:05;;;;;;;245.38;111.03;;;0.90;99.90;;;;;;4956046;29;20031;-79
2023/01/15 05:51:32;;;;;;;272.02;125.32;;;0.90;99.90;;;;;;4956109;29;20019;-81
2023/01/15 05:53:58;;;;;;;257.77;123.75;;;0.90;99.90;;;;;;4955716;29;20033;-82
2023/01/15 05:56:24;;;;;;;268.35;128.32;;;0.90;99.90;;;;;;4938810;29;20028;-81
2023/01/15 05:58:51;;;;;;;269.73;127.57;;;1.00;99.90;;;;;;4938713;29;20019;-82
2023/01/15 06:01:17;;;;;;;271.38;127.22;;;0.90;99.90;;;;;;4955737;29;20027;-81
2023/01/15 06:03:42;;;;;;;300.27;142.55;;;0.90;99.90;;;;;;4955305;29;20062;-82
2023/01/15 06:06:17;;;;;;;311.67;144.75;;;0.90;99.90;;;;;;4955858;29;20518;-81
2023/01/15 06:08:43;;;;;;;291.17;137.80;;;0.90;99.90;;;;;;4955698;29;20549;-81
2023/01/15 06:11:10;;;;;;;282.08;129.50;;;0.90;99.90;;;;;;4938188;28;20074;-81
2023/01/15 06:13:38;;;;;;;265.50;120.47;;;0.90;99.90;;;;;;4938711;29;20126;-81
2023/01/15 06:16:04;;;;;;;298.63;119.90;;;0.80;99.90;;;;;;4938488;29;20074;-84
2023/01/15 06:18:29;;;;;;;316.05;125.05;;;0.80;99.90;;;;;;4938388;29;20056;-83
2023/01/15 06:20:55;;;;;;;361.67;125.45;;;0.80;99.90;;;;;;4938387;29;20051;-80
2023/01/15 06:23:22;;;;;;;385.80;121.97;;;0.80;99.90;;;;;;4938038;29;20054;-81
2023/01/15 06:25:48;;;;;;;335.17;111.82;;;0.70;99.90;;;;;;4938086;29;20035;-81
2023/01/15 06:28:13;;;;;;;353.55;113.85;;;0.70;99.90;;;;;;4955185;29;20491;-81
2023/01/15 06:30:39;;;;;;;357.77;117.93;;;0.70;99.90;;;;;;4955680;29;20035;-82
2023/01/15 06:33:06;;;;;;;341.52;115.63;;;0.60;99.90;;;;;;4937988;29;20117;-81
2023/01/15 06:35:32;;;;;;;335.92;113.72;;;0.60;99.90;;;;;;4955525;29;20110;-81
2023/01/15 06:37:58;;;;;;;320.60;107.05;;;0.60;99.90;;;;;;4937563;29;20454;-82
2023/01/15 06:40:25;;;;;;;304.08;103.75;;;0.50;99.90;;;;;;4937997;29;20038;-82
2023/01/15 06:48:25;;;;;;;403.10;133.95;;;0.60;99.90;;;;;;4954978;29;20067;-80
2023/01/15 06:50:52;;;;;;;450.25;146.98;;;0.60;99.90;;;;;;4938146;29;20163;-82
2023/01/15 06:53:18;;;;;;;445.85;143.75;;;0.70;99.90;;;;;;4954548;29;20078;-81
2023/01/15 06:55:44;;;;;;;427.02;145.80;;;0.70;99.90;;;;;;4954908;29;20023;-81
2023/01/15 06:58:10;;;;;;;482.35;149.15;;;0.70;99.90;;;;;;4953974;29;20534;-81
2023/01/15 07:00:35;;;;;;;446.75;147.18;;;0.70;99.90;;;;;;4954946;29;20466;-82
2023/01/15 07:03:02;;;;;;;313.60;120.78;;;0.80;99.90;;;;;;4955220;29;20019;-81
2023/01/15 07:05:28;;;;;;;354.08;127.80;;;0.90;99.90;;;;;;4937314;29;20451;-82
2023/01/15 07:07:54;;;;;;;367.83;119.18;;;1.00;99.90;;;;;;4937625;29;20031;-82
2023/01/15 07:10:20;;;;;;;287.42;106.00;;;1.00;99.90;;;;;;4954942;28;20126;-81
2023/01/15 07:12:45;;;;;;;367.65;119.50;;;1.00;99.90;;;;;;4954969;29;20031;-81
2023/01/15 07:15:11;;;;;;;387.98;120.30;;;1.10;99.90;;;;;;4937431;29;20035;-81
2023/01/15 07:17:37;;;;;;;452.08;133.00;;;1.10;99.90;;;;;;4938116;29;20031;-81
2023/01/15 07:20:03;;;;;;;403.38;136.57;;;1.20;99.90;;;;;;4954595;29;20125;-82
2023/01/15 07:22:29;;;;;;;512.58;157.23;;;1.20;99.90;;;;;;4954696;29;20054;-81
2023/01/15 07:24:55;;;;;;;540.83;163.98;;;1.20;99.90;;;;;;4937408;29;20121;-82
2023/01/15 07:27:22;;;;;;;577.40;179.00;;;1.20;99.90;;;;;;4954874;29;20031;-82
2023/01/15 07:29:49;;;;;;;507.50;179.00;;;1.30;99.90;;;;;;4937601;29;20473;-82
2023/01/15 07:32:15;;;;;;;665.47;213.63;;;1.40;99.90;;;;;;4937571;29;20027;-84
2023/01/15 07:34:41;;;;;;;687.67;222.38;;;1.40;99.90;;;;;;4954371;29;20031;-81
2023/01/15 07:37:06;;;;;;;576.42;215.38;;;1.40;99.90;;;;;;4937689;29;20034;-81
2023/01/15 07:39:32;;;;;;;607.00;219.75;;;1.50;99.90;;;;;;4937345;29;20442;-83
2023/01/15 07:50:14;;;;;;;461.65;155.27;;;2.00;99.90;;;;;;4954403;29;20067;-81
2023/01/15 07:52:39;;;;;;;482.23;159.55;;;2.00;99.90;;;;;;4937177;29;20118;-82
2023/01/15 07:55:07;;;;;;;558.58;193.63;;;2.00;99.90;;;;;;4949850;29;20435;-82
2023/01/15 07:57:33;;;;;;;553.67;184.20;;;2.00;99.90;;;;;;4937202;29;20374;-82
2023/01/15 07:59:59;;;;;;;826.65;266.55;;;2.00;99.90;;;;;;4937123;29;20477;-81
2023/01/15 08:02:26;;;;;;;808.30;304.75;;;2.00;99.90;;;;;;4954809;29;20027;-83
2023/01/15 08:04:51;;;;;;;573.30;244.82;;;2.10;99.90;;;;;;4954287;29;20459;-82
2023/01/15 08:07:17;;;;;;;608.13;258.70;;;2.10;99.90;;;;;;4954584;29;20030;-81
2023/01/15 08:09:43;;;;;;;623.90;284.95;;;2.30;99.90;;;;;;4955006;28;20035;-83
2023/01/15 08:15:12;;;;;;;561.10;243.60;;;2.70;99.90;;;;;;4957690;29;20077;-82
2023/01/15 08:17:41;;;;;;;385.77;167.90;;;3.00;99.90;;;;;;4958403;29;20022;-82
2023/01/15 08:20:14;;;;;;;240.00;107.70;;;3.10;99.90;;;;;;4958296;29;20030;-84
2023/01/15 08:22:40;;;;;;;244.20;111.35;;;3.20;99.90;;;;;;4957665;29;20027;-81
2023/01/15 08:25:07;;;;;;;245.30;114.65;;;3.30;99.90;;;;;;4957143;29;20023;-80
2023/01/15 08:27:33;;;;;;;246.32;119.30;;;3.50;99.90;;;;;;4956880;29;20051;-79
2023/01/15 08:29:59;;;;;;;232.10;118.30;;;3.60;99.90;;;;;;4956631;29;20105;-81
2023/01/15 08:32:25;;;;;;;243.27;121.68;;;3.70;99.90;;;;;;4940038;29;20054;-80
2023/01/15 08:34:51;;;;;;;234.40;119.05;;;3.90;99.90;;;;;;4940147;29;20027;-81
2023/01/15 08:37:16;;;;;;;371.15;183.73;;;4.10;99.90;;;;;;4940189;29;20078;-80
2023/01/15 08:39:42;;;;;;;695.15;401.23;;;4.30;99.90;;;;;;4956997;29;20023;-82
2023/01/15 08:42:08;;;;;;;750.88;483.23;;;4.30;99.90;;;;;;4932986;29;20062;-83
2023/01/15 08:44:33;;;;;;;338.38;189.90;;;4.40;99.90;;;;;;4938480;29;20031;-85
2023/01/15 08:46:59;;;;;;;363.38;216.77;;;4.40;99.90;;;;;;4938452;29;20102;-81
2023/01/15 08:49:25;;;;;;;485.60;285.02;;;4.50;99.90;;;;;;4956788;29;20023;-83
2023/01/15 08:51:51;;;;;;;249.13;123.32;;;4.70;99.90;;;;;;4935759;29;20028;-83
2023/01/15 08:54:21;;;;;;;292.83;168.02;;;4.70;99.90;;;;;;4958040;29;20497;-83
2023/01/15 08:56:48;;;;;;;190.15;100.65;;;4.70;99.90;;;;;;4938900;29;20127;-83
2023/01/15 08:59:14;;;;;;;201.75;110.18;;;4.80;99.90;;;;;;4938272;29;20098;-83
2023/01/15 09:01:40;;;;;;;163.00;87.68;;;4.90;99.90;;;;;;4921423;29;20435;-83
2023/01/15 09:04:06;;;;;;;134.63;69.22;;;5.10;99.90;;;;;;4938442;29;20086;-82
2023/01/15 09:06:32;;;;;;;162.52;93.63;;;5.30;99.90;;;;;;4921103;29;20028;-85
2023/01/15 09:08:59;;;;;;;156.02;78.97;;;5.40;99.90;;;;;;4922580;28;20023;-83
2023/01/15 09:11:25;;;;;;;154.77;83.50;;;5.60;99.90;;;;;;4956641;29;20023;-83
2023/01/15 09:13:50;;;;;;;180.38;92.32;;;5.70;99.90;;;;;;4940249;29;20355;-84
2023/01/15 09:16:17;;;;;;;302.90;143.90;;;5.90;99.90;;;;;;4938884;29;20050;-84
2023/01/15 09:18:43;;;;;;;260.17;122.43;;;6.00;99.90;;;;;;4955999;29;20102;-84
2023/01/15 09:21:09;;;;;;;497.33;234.02;;;6.10;99.90;;;;;;4939238;29;20182;-83
2023/01/15 09:23:35;;;;;;;234.10;110.63;;;6.10;99.90;;;;;;4957268;29;20513;-84
2023/01/15 09:26:04;;;;;;;295.48;143.20;;;6.30;99.90;;;;;;4939877;29;20110;-86
2023/01/15 09:28:32;;;;;;;170.88;88.60;;;6.40;99.90;;;;;;4938189;29;20131;-83
2023/01/15 09:30:58;;;;;;;121.07;68.22;;;6.60;99.90;;;;;;4938500;29;20028;-85
2023/01/15 09:33:24;;;;;;;123.15;68.78;;;6.70;99.90;;;;;;4956868;29;20439;-85
2023/01/15 09:35:52;;;;;;;108.75;61.55;;;7.00;99.90;;;;;;4939006;29;19913;-85
2023/01/15 09:38:22;;;;;;;96.10;54.83;;;7.30;99.90;;;;;;4937904;29;20027;-85
2023/01/15 09:41:01;;;;;;;87.65;46.78;;;7.40;99.90;;;;;;4938733;29;20031;-84
2023/01/15 09:43:51;;;;;;;89.25;46.45;;;7.50;99.90;;;;;;4940124;29;20046;-87
2023/01/15 09:46:22;;;;;;;102.15;53.28;;;7.60;99.90;;;;;;4931552;29;20024;-84
2023/01/15 09:49:20;;;;;;;87.63;47.45;;;7.90;99.90;;;;;;4920436;29;20523;-85
2023/01/15 09:52:05;;;;;;;73.32;38.63;;;8.00;99.90;;;;;;4919409;29;20075;-83
2023/01/15 09:54:40;;;;;;;77.50;39.95;;;8.20;99.90;;;;;;4920407;29;20071;-85
2023/01/15 09:57:11;;;;;;;70.35;36.75;;;8.60;99.90;;;;;;4920511;29;20020;-85
2023/01/15 09:59:40;;;;;;;97.65;46.17;;;8.90;99.90;;;;;;4920353;29;20030;-83
2023/01/15 10:02:30;;;;;;;119.95;60.05;;;9.40;99.90;;;;;;4937172;29;20035;-83
2023/01/15 10:05:10;;;;;;;137.10;59.50;;;9.80;99.90;;;;;;4937500;29;20027;-83
2023/01/15 10:07:44;;;;;;;89.78;45.40;;;10.00;99.90;;;;;;4939298;29;20103;-83
2023/01/15 10:10:14;;;;;;;138.38;67.72;;;10.40;99.90;;;;;;4937396;29;20046;-81
2023/01/15 10:12:43;;;;;;;155.90;73.22;;;10.80;99.90;;;;;;4938766;29;20034;-81
2023/01/15 10:15:23;;;;;;;106.85;47.90;;;11.40;99.90;;;;;;4955759;29;20118;-81
2023/01/15 10:17:52;;;;;;;143.10;59.83;;;11.20;99.90;;;;;;4938201;29;20031;-81
2023/01/15 10:20:55;;;;;;;123.47;54.17;;;11.70;99.90;;;;;;4938247;29;20094;-81
2023/01/15 10:23:34;;;;;;;73.07;34.80;;;12.10;99.90;;;;;;4949702;29;19970;-81
2023/01/15 10:26:19;;;;;;;83.93;36.28;;;11.70;99.10;;;;;;4952732;29;20443;-81
2023/01/15 10:28:50;;;;;;;120.80;48.33;;;12.00;99.90;;;;;;4955240;29;20038;-81
2023/01/15 10:31:21;;;;;;;62.30;31.13;;;12.00;98.80;;;;;;4951811;29;20126;-81
2023/01/15 10:34:13;;;;;;;69.28;33.83;;;12.50;98.10;;;;;;4935095;29;20038;-80
2023/01/15 10:36:49;;;;;;;92.72;38.55;;;13.60;95.20;;;;;;4932800;29;20070;-79
2023/01/15 10:39:35;;;;;;;68.97;33.90;;;14.00;92.50;;;;;;4954474;29;20019;-80
2023/01/15 10:42:23;;;;;;;73.70;36.25;;;14.20;91.40;;;;;;4955348;29;20023;-78
2023/01/15 10:45:05;;;;;;;80.03;38.80;;;14.60;90.20;;;;;;4954588;29;20097;-77
2023/01/15 10:47:36;;;;;;;85.75;40.72;;;14.70;86.80;;;;;;4955856;29;20031;-78
2023/01/15 10:50:19;;;;;;;111.82;49.42;;;14.80;84.80;;;;;;4955923;29;20023;-77
2023/01/15 10:53:08;;;;;;;119.93;62.00;;;15.00;84.30;;;;;;4936136;29;20034;-76
2023/01/15 10:55:58;;;;;;;76.35;41.17;;;14.60;80.70;;;;;;4921190;29;20031;-78
2023/01/15 10:58:42;;;;;;;45.30;25.30;;;14.70;81.20;;;;;;4936300;29;20368;-79
2023/01/15 11:01:15;;;;;;;45.05;26.35;;;14.60;81.70;;;;;;4922770;29;20039;-77
2023/01/15 11:03:43;;;;;;;39.00;22.25;;;15.10;79.80;;;;;;4936495;29;20042;-78
2023/01/15 11:06:21;;;;;;;54.53;27.63;;;15.00;78.50;;;;;;4936077;29;20071;-77
2023/01/15 11:08:58;;;;;;;43.92;24.70;;;15.30;79.80;;;;;;4936344;29;20473;-78
2023/01/15 11:19:57;;;;;;;40.70;23.38;;;15.20;76.60;;;;;;4949899;29;20114;-77
2023/01/15 11:22:22;;;;;;;42.35;26.42;;;14.90;76.60;;;;;;4955127;29;20047;-76
2023/01/15 11:24:55;;;;;;;41.25;25.02;;;15.10;76.40;;;;;;4937300;29;20066;-76
2023/01/15 11:27:28;;;;;;;36.65;20.88;;;15.10;75.40;;;;;;4949241;29;20470;-77
2023/01/15 11:29:57;;;;;;;65.80;38.95;;;15.50;74.70;;;;;;4953543;29;20034;-77
2023/01/15 11:32:37;;;;;;;35.72;22.23;;;15.60;74.40;;;;;;4955543;29;20023;-78
2023/01/15 11:35:15;;;;;;;35.72;23.40;;;15.80;73.70;;;;;;4932150;29;20374;-77
2023/01/15 11:37:41;;;;;;;43.03;24.95;;;15.60;72.60;;;;;;4928812;29;20020;-77
2023/01/15 11:40:18;;;;;;;35.05;19.50;;;15.60;71.50;;;;;;4951289;29;20082;-77
2023/01/15 11:51:12;;;;;;;37.75;22.00;;;14.40;71.90;;;;;;4957978;29;20058;-77
2023/01/15 11:53:52;;;;;;;56.58;25.95;;;14.40;75.00;;;;;;4940547;29;20026;-77
2023/01/15 11:56:23;;;;;;;58.08;28.38;;;14.10;74.60;;;;;;4957594;29;20031;-76
2023/01/15 11:59:01;;;;;;;55.20;29.23;;;14.00;75.40;;;;;;4940725;29;20523;-77
2023/01/15 12:01:34;;;;;;;45.58;24.88;;;13.90;75.80;;;;;;4951855;29;20084;-77
2023/01/15 12:04:04;;;;;;;41.53;23.83;;;14.10;75.60;;;;;;4940811;29;20062;-78
2023/01/15 12:06:34;;;;;;;48.65;25.45;;;14.00;76.60;;;;;;4940773;29;20035;-80
2023/01/15 12:09:32;;;;;;;54.70;29.33;;;14.00;77.60;;;;;;4935545;28;20027;-79
2023/01/15 12:12:17;;;;;;;48.28;24.40;;;14.00;76.10;;;;;;4940164;29;20025;-79
2023/01/15 12:14:57;;;;;;;35.92;22.70;;;13.80;77.00;;;;;;4944901;29;20028;-79
2023/01/15 12:17:31;;;;;;;67.75;34.67;;;13.50;77.90;;;;;;4941175;29;20039;-79
2023/01/15 12:20:05;;;;;;;85.53;42.30;;;13.70;79.00;;;;;;4958255;29;20181;-80
2023/01/15 12:22:44;;;;;;;56.55;30.25;;;13.50;78.30;;;;;;4957884;29;20110;-79
2023/01/15 12:25:25;;;;;;;34.13;20.00;;;12.80;79.10;;;;;;4957894;29;20075;-80
2023/01/15 12:28:09;;;;;;;57.90;30.50;;;12.50;80.10;;;;;;4957386;29;20051;-79
2023/01/15 12:31:05;;;;;;;48.08;24.17;;;12.20;82.50;;;;;;4940018;29;20027;-81
2023/01/15 12:33:45;;;;;;;45.78;25.33;;;12.00;84.90;;;;;;4940319;29;20458;-80
2023/01/15 12:36:27;;;;;;;53.42;28.25;;;11.80;87.20;;;;;;4954446;29;20038;-80
2023/01/15 12:38:57;;;;;;;51.08;25.52;;;11.60;88.40;;;;;;4940166;29;20579;-80
2023/01/15 12:44:59;;;;;;;52.33;27.17;;;11.40;88.10;;;;;;4956936;29;20042;-79
2023/01/15 12:47:10;;;;;;;32.22;17.58;;;11.20;90.70;;;;;;4956836;29;20046;-78
2023/01/15 12:49:43;;;;;;;41.72;20.73;;;11.00;90.20;;;;;;4956885;29;20019;-79
2023/01/15 12:52:23;;;;;;;77.15;35.10;;;11.00;90.60;;;;;;4945423;29;20032;-78
2023/01/15 12:55:18;;;;;;;74.88;35.90;;;11.00;92.00;;;;;;4926136;29;20066;-78
2023/01/15 12:57:48;;;;;;;67.60;31.13;;;10.90;92.10;;;;;;4935668;29;20040;-78
2023/01/15 13:00:37;;;;;;;40.92;20.50;;;10.90;92.80;;;;;;4957199;29;20019;-78
2023/01/15 13:03:15;;;;;;;47.50;22.52;;;10.90;93.50;;;;;;4951414;29;20025;-79
2023/01/15 13:05:56;;;;;;;84.40;38.60;;;10.90;93.60;;;;;;4940020;29;20122;-79
2023/01/15 13:08:31;;;;;;;69.88;31.63;;;10.90;94.60;;;;;;4957312;29;20027;-78
2023/01/15 13:10:57;;;;;;;66.43;33.88;;;10.90;94.50;;;;;;4956976;28;20756;-80
2023/01/15 13:13:29;;;;;;;54.03;26.73;;;10.90;94.20;;;;;;4939522;29;20054;-79
2023/01/15 13:16:11;;;;;;;41.58;21.83;;;10.90;94.90;;;;;;4938448;29;20019;-79
2023/01/15 13:19:03;;;;;;;44.33;21.92;;;10.80;95.90;;;;;;4952468;29;20031;-78
2023/01/15 13:21:33;;;;;;;52.45;26.45;;;10.90;95.90;;;;;;4956543;29;20443;-79
2023/01/15 13:24:05;;;;;;;60.97;28.67;;;10.90;96.30;;;;;;4952346;29;20047;-81
2023/01/15 13:26:37;;;;;;;58.33;27.73;;;10.90;96.00;;;;;;4956931;29;20031;-82